createdAt,value
2019-04-10T00:04:36.965Z,69.41
2019-04-10T00:09:33.047Z,69.71
2019-04-10T00:14:28.975Z,69.56
2019-04-10T00:19:24.928Z,70.08
2019-04-10T00:24:21.945Z,70.00
2019-04-10T00:29:18.275Z,70.36
2019-04-10T00:34:14.232Z,69.74
2019-04-10T00:39:10.567Z,69.72
2019-04-10T00:44:07.715Z,69.61
2019-04-10T00:49:03.848Z,69.51
2019-04-10T00:54:01.263Z,69.66
2019-04-10T00:58:57.578Z,68.74
2019-04-10T01:03:53.918Z,68.90
2019-04-10T01:08:51.038Z,68.94
2019-04-10T01:13:47.446Z,69.58
2019-04-10T01:18:43.642Z,69.57
2019-04-10T01:23:47.264Z,69.83
2019-04-10T01:28:43.298Z,69.61
2019-04-10T01:33:39.615Z,69.55
2019-04-10T01:38:35.609Z,69.20
2019-04-10T01:43:31.537Z,68.61
2019-04-10T01:48:27.976Z,68.38
2019-04-10T01:53:24.103Z,68.58
2019-04-10T01:58:21.829Z,69.17
2019-04-10T02:03:18.100Z,68.79
2019-04-10T02:08:16.058Z,68.58
2019-04-10T02:13:11.969Z,68.23
2019-04-10T02:18:08.862Z,68.64
2019-04-10T02:23:05.843Z,68.24
2019-04-10T02:28:02.773Z,69.19
2019-04-10T02:32:59.784Z,69.01
2019-04-10T02:37:56.648Z,68.67
2019-04-10T02:42:54.713Z,69.28
2019-04-10T02:47:51.036Z,68.81
2019-04-10T02:52:50.110Z,68.79
2019-04-10T02:57:45.958Z,68.39
2019-04-10T03:02:42.959Z,68.55
2019-04-10T03:07:40.341Z,68.89
2019-04-10T03:12:38.562Z,69.62
2019-04-10T03:17:34.940Z,69.36
2019-04-10T03:22:31.096Z,69.48
2019-04-10T03:27:28.035Z,69.96
2019-04-10T03:32:44.458Z,70.09
2019-04-10T03:37:39.056Z,69.81
2019-04-10T03:42:35.016Z,70.68
2019-04-10T03:47:31.334Z,70.50
2019-04-10T03:52:27.490Z,71.16
2019-04-10T03:57:24.613Z,70.62
2019-04-10T04:02:21.718Z,71.08
2019-04-10T04:07:18.220Z,71.50
2019-04-10T04:12:14.737Z,71.14
2019-04-10T04:17:11.536Z,71.51
2019-04-10T04:22:10.125Z,71.68
2019-04-10T04:27:08.968Z,71.31
2019-04-10T04:32:06.922Z,71.57
2019-04-10T04:37:05.072Z,71.85
2019-04-10T04:42:01.652Z,71.47
2019-04-10T04:46:59.137Z,72.25
2019-04-10T04:51:56.018Z,72.33
2019-04-10T04:56:52.555Z,72.28
2019-04-10T05:01:48.900Z,73.20
2019-04-10T05:06:45.835Z,73.42
2019-04-10T05:11:42.687Z,73.33
2019-04-10T05:16:39.554Z,72.87
2019-04-10T05:21:35.636Z,72.34
2019-04-10T05:26:32.338Z,72.04
2019-04-10T05:31:28.303Z,69.13
2019-04-10T05:36:24.197Z,65.83
2019-04-10T05:41:20.121Z,70.24
2019-04-10T05:46:16.514Z,67.86
2019-04-10T05:51:12.692Z,66.06
2019-04-10T05:56:08.615Z,65.00
2019-04-10T06:01:06.045Z,68.37
2019-04-10T06:06:02.175Z,66.20
2019-04-10T06:10:58.254Z,65.47
2019-04-10T06:15:55.090Z,68.23
2019-04-10T06:20:51.159Z,66.59
2019-04-10T06:25:47.828Z,65.67
2019-04-10T06:30:43.935Z,67.12
2019-04-10T06:35:39.948Z,67.36
2019-04-10T06:40:35.963Z,66.91
2019-04-10T06:45:31.890Z,65.58
2019-04-10T06:50:29.427Z,66.30
2019-04-10T06:55:25.659Z,65.14
2019-04-10T07:00:21.588Z,63.48
2019-04-10T07:05:17.509Z,64.18
2019-04-10T07:10:26.134Z,64.73
2019-04-10T07:15:14.628Z,63.90
2019-04-10T07:20:11.587Z,63.74
2019-04-10T07:25:10.366Z,62.32
2019-04-10T07:30:09.732Z,61.14
2019-04-10T07:35:08.858Z,60.37
2019-04-10T07:40:06.062Z,60.70
2019-04-10T07:45:04.074Z,60.48
2019-04-10T07:50:02.185Z,59.47
2019-04-10T07:54:58.698Z,60.67
2019-04-10T07:59:54.825Z,62.83
2019-04-10T08:04:51.659Z,61.49
2019-04-10T08:09:47.705Z,61.26
2019-04-10T08:14:44.271Z,60.75
2019-04-10T08:19:41.154Z,61.33
2019-04-10T08:24:37.147Z,58.91
2019-04-10T08:29:33.073Z,60.23
2019-04-10T08:34:29.026Z,60.90
2019-04-10T08:39:35.318Z,60.75
2019-04-10T08:44:22.920Z,60.92
2019-04-10T08:49:18.841Z,60.91
2019-04-10T08:54:16.199Z,59.53
2019-04-10T08:59:12.346Z,59.14
2019-04-10T09:04:08.277Z,59.81
2019-04-10T09:09:05.835Z,59.78
2019-04-10T09:14:01.780Z,58.21
2019-04-10T09:18:57.927Z,58.33
2019-04-10T09:23:57.433Z,56.50
2019-04-10T09:28:53.392Z,57.42
2019-04-10T09:33:49.574Z,57.17
2019-04-10T09:38:45.586Z,55.41
2019-04-10T09:43:42.157Z,53.63
2019-04-10T09:48:38.141Z,55.16
2019-04-10T09:53:37.185Z,56.36
2019-04-10T09:58:33.970Z,55.64
2019-04-10T10:03:30.325Z,56.70
2019-04-10T10:08:26.862Z,58.52
2019-04-10T10:13:23.550Z,54.20
2019-04-10T10:18:19.568Z,54.53
2019-04-10T10:23:19.891Z,52.81
2019-04-10T10:28:15.982Z,55.34
2019-04-10T10:33:13.126Z,51.70
2019-04-10T10:38:09.307Z,53.39
2019-04-10T10:43:05.233Z,52.25
2019-04-10T10:48:03.231Z,55.42
2019-04-10T10:53:00.317Z,53.85
2019-04-10T10:57:57.577Z,52.23
2019-04-10T11:02:54.422Z,50.86
2019-04-10T11:07:55.821Z,50.72
2019-04-10T11:12:54.194Z,48.71
2019-04-10T11:17:52.120Z,50.07
2019-04-10T11:22:51.338Z,49.29
2019-04-10T11:27:51.549Z,45.73
2019-04-10T11:32:50.744Z,48.05
2019-04-10T11:42:48.463Z,48.57
2019-04-10T11:47:47.488Z,51.09
2019-04-10T11:57:46.939Z,49.72
2019-04-10T12:02:45.871Z,50.74
2019-04-10T12:08:09.559Z,47.97
2019-04-10T12:12:39.025Z,47.57
2019-04-10T12:17:35.836Z,46.59
2019-04-10T12:22:31.936Z,45.10
2019-04-10T12:27:27.893Z,47.89
2019-04-10T12:32:24.762Z,45.97
2019-04-10T12:37:20.955Z,43.83
2019-04-10T12:42:16.957Z,44.39
2019-04-10T12:47:13.427Z,45.44
2019-04-10T12:52:10.190Z,43.79
2019-04-10T12:57:06.473Z,43.10
2019-04-10T13:02:02.931Z,44.53
2019-04-10T13:06:59.079Z,44.16
2019-04-10T13:11:55.077Z,42.52
2019-04-10T13:16:52.193Z,46.05
2019-04-10T13:21:48.176Z,45.29
2019-04-10T13:26:44.117Z,46.95
2019-04-10T13:31:40.144Z,44.60
2019-04-10T13:36:36.171Z,45.69
2019-04-10T13:41:32.422Z,44.58
2019-04-10T13:46:28.965Z,43.02
2019-04-10T13:51:25.484Z,41.70
2019-04-10T13:56:21.578Z,41.94
2019-04-10T14:01:19.679Z,43.51
2019-04-10T14:06:17.129Z,41.81
2019-04-10T14:11:13.318Z,43.98
2019-04-10T14:16:09.349Z,44.63
2019-04-10T14:21:11.061Z,43.87
2019-04-10T14:26:22.547Z,42.46
2019-04-10T14:31:20.650Z,43.83
2019-04-10T14:36:16.681Z,41.84
2019-04-10T14:41:13.652Z,41.93
2019-04-10T14:46:10.327Z,41.91
2019-04-10T14:51:06.439Z,40.26
2019-04-10T14:56:04.060Z,40.32
2019-04-10T15:01:02.669Z,39.43
2019-04-10T15:06:01.148Z,41.00
2019-04-10T15:11:00.343Z,41.62
2019-04-10T15:15:58.729Z,42.23
2019-04-10T15:20:56.680Z,41.61
2019-04-10T15:25:52.667Z,40.17
2019-04-10T15:30:48.686Z,43.36
2019-04-10T15:35:44.792Z,40.36
2019-04-10T15:40:42.011Z,42.23
2019-04-10T15:45:38.050Z,40.72
2019-04-10T15:50:34.670Z,38.99
2019-04-10T15:55:32.188Z,40.04
2019-04-10T16:00:29.381Z,41.45
2019-04-10T16:05:25.761Z,41.78
2019-04-10T16:10:26.544Z,39.35
2019-04-10T16:15:22.669Z,40.03
2019-04-10T16:20:21.652Z,39.18
2019-04-10T16:25:22.399Z,39.15
2019-04-10T16:30:20.343Z,39.10
2019-04-10T16:35:16.807Z,36.34
2019-04-10T16:40:18.538Z,36.41
2019-04-10T16:45:17.618Z,36.19
2019-04-10T16:50:14.860Z,37.37
2019-04-10T16:55:13.633Z,35.68
2019-04-10T17:00:14.158Z,35.39
2019-04-10T17:05:10.213Z,34.92
2019-04-10T17:10:15.969Z,32.64
2019-04-10T17:20:26.653Z,31.76
2019-04-10T17:25:24.334Z,31.61
2019-04-10T17:30:21.984Z,32.68
2019-04-10T17:35:19.313Z,34.96
2019-04-10T17:40:28.515Z,33.28
2019-04-10T17:45:15.136Z,32.84
2019-04-10T17:50:14.166Z,34.46
2019-04-10T17:55:13.398Z,37.05
2019-04-10T18:00:20.926Z,38.02
2019-04-10T18:05:18.195Z,40.10
2019-04-10T18:10:14.758Z,40.66
2019-04-10T18:15:11.490Z,39.08
2019-04-10T18:20:08.403Z,41.03
2019-04-10T18:25:05.578Z,39.06
2019-04-10T18:30:01.881Z,42.12
2019-04-10T18:34:58.454Z,40.79
2019-04-10T18:39:55.000Z,41.86
2019-04-10T18:44:51.182Z,41.16
2019-04-10T18:49:47.546Z,42.00
2019-04-10T18:54:44.243Z,43.71
2019-04-10T18:59:58.791Z,45.28
2019-04-10T19:05:09.828Z,45.79
2019-04-10T19:10:12.788Z,47.08
2019-04-10T19:15:10.728Z,48.53
2019-04-10T19:20:08.908Z,49.05
2019-04-10T19:25:08.186Z,49.66
2019-04-10T19:30:08.779Z,50.29
2019-04-10T19:35:06.626Z,50.81
2019-04-10T19:40:05.244Z,50.71
2019-04-10T19:45:05.622Z,50.52
2019-04-10T19:50:03.515Z,50.70
2019-04-10T19:54:59.692Z,51.46
2019-04-10T19:59:56.288Z,51.27
2019-04-10T20:04:56.990Z,51.40
2019-04-10T20:09:54.948Z,51.51
2019-04-10T20:14:53.248Z,51.94
2019-04-10T20:19:52.609Z,51.81
2019-04-10T20:24:50.363Z,51.72
2019-04-10T20:29:47.705Z,52.24
2019-04-10T20:34:45.245Z,54.08
2019-04-10T20:39:42.745Z,53.67
2019-04-10T20:44:39.205Z,52.64
2019-04-10T20:49:36.443Z,53.51
2019-04-10T20:54:35.040Z,54.44
2019-04-10T20:59:33.355Z,53.17
2019-04-10T21:04:34.594Z,53.00
2019-04-10T21:09:32.068Z,54.18
2019-04-10T21:14:29.670Z,54.89
2019-04-10T21:19:26.959Z,56.30
2019-04-10T21:24:23.930Z,54.33
2019-04-10T21:29:26.068Z,54.79
2019-04-10T21:34:24.327Z,54.41
2019-04-10T21:39:21.185Z,55.50
2019-04-10T21:44:18.281Z,55.13
2019-04-10T21:49:15.500Z,56.25
2019-04-10T21:54:12.478Z,57.35
2019-04-10T21:59:09.038Z,56.79
2019-04-10T22:04:06.344Z,56.13
2019-04-10T22:09:12.621Z,57.82
2019-04-10T22:14:10.923Z,57.88
2019-04-10T22:19:10.518Z,58.42
2019-04-10T22:24:07.395Z,59.02
2019-04-10T22:29:03.659Z,58.57
2019-04-10T22:34:00.755Z,58.17
2019-04-10T22:38:56.821Z,57.84
2019-04-10T22:43:52.840Z,59.42
2019-04-10T22:48:49.980Z,60.01
2019-04-10T22:53:50.994Z,60.76
2019-04-10T22:58:46.996Z,60.14
2019-04-10T23:03:43.247Z,59.52
2019-04-10T23:08:39.897Z,60.02
2019-04-10T23:13:36.249Z,61.03
2019-04-10T23:18:32.376Z,60.33
2019-04-10T23:23:30.859Z,60.12
2019-04-10T23:28:27.330Z,61.34
2019-04-10T23:33:23.902Z,60.59
2019-04-10T23:38:19.919Z,61.21
2019-04-10T23:43:18.189Z,61.03
2019-04-10T23:48:14.838Z,60.92
2019-04-10T23:53:12.021Z,60.93
2019-04-10T23:58:08.000Z,61.22
